createdAt,value
2023-02-11T00:00:46.350Z,17.58
2023-02-11T00:05:47.938Z,17.42
2023-02-11T00:10:49.662Z,17.10
2023-02-11T00:15:51.590Z,18.80
2023-02-11T00:20:53.220Z,19.08
2023-02-11T00:25:54.749Z,19.23
2023-02-11T00:30:56.298Z,19.05
2023-02-11T00:35:57.900Z,19.38
2023-02-11T00:40:59.408Z,20.08
2023-02-11T00:46:01.133Z,22.52
2023-02-11T00:51:02.634Z,19.45
2023-02-11T00:56:04.278Z,19.80
2023-02-11T01:01:05.962Z,19.27
2023-02-11T01:06:07.627Z,20.88
2023-02-11T01:11:09.076Z,20.33
2023-02-11T01:16:10.566Z,19.98
2023-02-11T01:21:12.125Z,20.98
2023-02-11T01:26:13.581Z,20.67
2023-02-11T01:31:15.143Z,20.98
2023-02-11T01:36:16.809Z,19.50
2023-02-11T01:41:18.233Z,21.00
2023-02-11T01:46:19.742Z,19.58
2023-02-11T01:51:21.282Z,19.52
2023-02-11T01:56:22.759Z,20.38
2023-02-11T02:01:24.367Z,19.23
2023-02-11T02:06:25.927Z,20.08
2023-02-11T02:11:27.487Z,19.83
2023-02-11T02:16:28.991Z,19.40
2023-02-11T02:21:30.461Z,17.75
2023-02-11T02:26:31.930Z,18.55
2023-02-11T02:31:33.452Z,18.98
2023-02-11T02:36:34.977Z,18.48
2023-02-11T02:41:36.470Z,18.95
2023-02-11T02:46:38.074Z,17.65
2023-02-11T02:51:39.600Z,17.58
2023-02-11T02:56:41.268Z,16.95
2023-02-11T03:01:42.942Z,18.95
2023-02-11T03:06:44.492Z,19.77
2023-02-11T03:11:46.004Z,18.52
2023-02-11T03:16:47.524Z,18.55
2023-02-11T03:21:49.177Z,18.27
2023-02-11T03:26:50.605Z,17.25
2023-02-11T03:31:52.166Z,18.27
2023-02-11T03:36:53.673Z,19.85
2023-02-11T03:41:55.130Z,19.00
2023-02-11T03:46:56.651Z,19.15
2023-02-11T03:51:58.191Z,18.42
2023-02-11T03:56:59.818Z,18.63
2023-02-11T04:02:01.356Z,19.92
2023-02-11T04:07:03.014Z,19.02
2023-02-11T04:12:04.487Z,18.48
2023-02-11T04:17:05.940Z,18.77
2023-02-11T04:22:07.570Z,17.63
2023-02-11T04:27:09.054Z,18.90
2023-02-11T04:32:10.714Z,18.20
2023-02-11T04:37:12.382Z,16.92
2023-02-11T04:42:14.017Z,18.23
2023-02-11T04:47:15.510Z,17.45
2023-02-11T04:52:17.022Z,16.95
2023-02-11T04:57:18.496Z,17.85
2023-02-11T05:02:24.074Z,18.65
2023-02-11T05:07:25.720Z,17.40
2023-02-11T05:12:27.193Z,15.18
2023-02-11T05:17:28.686Z,13.15
2023-02-11T05:22:30.194Z,12.40
2023-02-11T05:27:31.733Z,16.90
2023-02-11T05:32:33.214Z,16.33
2023-02-11T05:37:34.915Z,16.30
2023-02-11T05:42:36.430Z,15.60
2023-02-11T05:47:37.930Z,15.98
2023-02-11T05:52:39.444Z,15.43
2023-02-11T05:57:41.259Z,15.85
2023-02-11T06:02:42.923Z,17.13
2023-02-11T06:07:44.649Z,15.48
2023-02-11T06:12:47.195Z,16.83
2023-02-11T06:17:48.627Z,16.63
2023-02-11T06:22:50.323Z,18.00
2023-02-11T06:27:51.806Z,16.55
2023-02-11T06:32:53.390Z,17.55
2023-02-11T06:37:55.108Z,17.30
2023-02-11T06:42:56.594Z,16.85
2023-02-11T06:47:58.196Z,16.48
2023-02-11T06:52:59.679Z,15.75
2023-02-11T06:58:01.302Z,14.77
2023-02-11T07:03:02.939Z,15.82
2023-02-11T07:08:04.659Z,15.98
2023-02-11T07:13:06.161Z,17.55
2023-02-11T07:18:07.704Z,19.20
2023-02-11T07:23:09.167Z,18.00
2023-02-11T07:28:11.040Z,15.80
2023-02-11T07:33:12.715Z,16.50
2023-02-11T07:38:14.223Z,16.20
2023-02-11T07:43:15.705Z,16.10
2023-02-11T07:48:17.222Z,14.65
2023-02-11T07:53:18.730Z,14.90
2023-02-11T07:58:20.211Z,16.42
2023-02-11T08:03:21.691Z,14.25
2023-02-11T08:08:23.197Z,16.02
2023-02-11T08:13:24.714Z,15.13
2023-02-11T08:18:26.166Z,14.25
2023-02-11T08:23:27.651Z,14.48
2023-02-11T08:28:29.137Z,14.38
2023-02-11T08:33:30.648Z,16.00
2023-02-11T08:38:32.096Z,16.40
2023-02-11T08:43:33.608Z,13.38
2023-02-11T08:48:35.077Z,15.88
2023-02-11T08:53:36.535Z,17.30
2023-02-11T08:58:37.999Z,16.73
2023-02-11T09:03:39.494Z,14.95
2023-02-11T09:08:40.968Z,14.70
2023-02-11T09:13:42.647Z,17.25
2023-02-11T09:18:44.115Z,15.80
2023-02-11T09:23:45.590Z,15.30
2023-02-11T09:28:47.146Z,16.08
2023-02-11T09:33:48.651Z,16.20
2023-02-11T09:38:50.138Z,14.77
2023-02-11T09:43:51.766Z,15.02
2023-02-11T09:48:53.315Z,14.38
2023-02-11T09:53:54.833Z,12.95
2023-02-11T09:58:56.349Z,12.52
2023-02-11T10:03:57.862Z,15.15
2023-02-11T10:08:59.310Z,12.13
2023-02-11T10:14:00.817Z,13.90
2023-02-11T10:19:02.386Z,13.55
2023-02-11T10:24:03.830Z,12.57
2023-02-11T10:29:05.456Z,13.05
2023-02-11T10:34:06.893Z,14.90
2023-02-11T10:39:08.351Z,11.95
2023-02-11T10:44:09.782Z,13.85
2023-02-11T10:49:11.200Z,13.00
2023-02-11T10:54:13.770Z,14.30
2023-02-11T10:59:15.413Z,13.65
2023-02-11T11:04:16.870Z,13.35
2023-02-11T11:09:18.382Z,14.93
2023-02-11T11:14:19.907Z,14.27
2023-02-11T11:19:21.375Z,11.82
2023-02-11T11:24:22.809Z,13.40
2023-02-11T11:29:24.239Z,13.13
2023-02-11T11:34:25.693Z,12.48
2023-02-11T11:39:27.153Z,16.05
2023-02-11T11:44:28.605Z,14.88
2023-02-11T11:49:32.966Z,13.13
2023-02-11T11:54:34.412Z,14.20
2023-02-11T11:59:35.832Z,13.40
2023-02-11T12:04:37.279Z,10.65
2023-02-11T12:09:38.711Z,13.77
2023-02-11T12:14:40.170Z,13.40
2023-02-11T12:19:41.838Z,12.68
2023-02-11T12:24:43.269Z,14.93
2023-02-11T12:29:44.692Z,13.95
2023-02-11T12:34:46.117Z,14.02
2023-02-11T12:39:47.558Z,12.95
2023-02-11T12:44:50.173Z,14.65
2023-02-11T12:49:51.773Z,14.65
2023-02-11T12:54:53.362Z,14.15
2023-02-11T12:59:54.819Z,15.20
2023-02-11T13:04:56.474Z,14.93
2023-02-11T13:09:58.071Z,11.00
2023-02-11T13:14:59.542Z,12.88
2023-02-11T13:20:01.088Z,14.57
2023-02-11T13:25:02.593Z,15.57
2023-02-11T13:30:04.477Z,14.45
2023-02-11T13:35:06.037Z,14.20
2023-02-11T13:40:07.548Z,12.38
2023-02-11T13:45:09.130Z,16.45
2023-02-11T13:50:10.789Z,13.05
2023-02-11T13:55:12.472Z,13.90
2023-02-11T14:00:13.942Z,13.82
2023-02-11T14:05:15.526Z,13.15
2023-02-11T14:10:16.985Z,13.02
2023-02-11T14:15:18.622Z,12.90
2023-02-11T14:20:20.098Z,13.98
2023-02-11T14:25:21.549Z,11.48
2023-02-11T14:30:22.972Z,14.95
2023-02-11T14:35:27.396Z,15.13
2023-02-11T14:40:28.859Z,14.15
2023-02-11T14:45:30.297Z,14.35
2023-02-11T14:50:31.931Z,15.15
2023-02-11T14:55:33.392Z,15.38
2023-02-11T15:00:34.894Z,14.68
2023-02-11T15:05:36.353Z,14.25
2023-02-11T15:10:38.066Z,14.32
2023-02-11T15:15:39.609Z,14.32
2023-02-11T15:20:41.250Z,13.55
2023-02-11T15:25:42.704Z,14.43
2023-02-11T15:30:44.409Z,14.52
2023-02-11T15:35:45.903Z,16.40
2023-02-11T15:40:47.527Z,14.15
2023-02-11T15:45:48.988Z,17.75
2023-02-11T15:50:50.796Z,16.20
2023-02-11T15:55:52.654Z,17.30
2023-02-11T16:00:54.421Z,17.83
2023-02-11T16:05:55.940Z,16.80
2023-02-11T16:10:57.410Z,18.17
2023-02-11T16:15:58.901Z,18.90
2023-02-11T16:21:00.357Z,17.75
2023-02-11T16:26:01.778Z,17.63
2023-02-11T16:31:03.290Z,16.75
2023-02-11T16:36:04.946Z,15.77
2023-02-11T16:41:06.607Z,15.60
2023-02-11T16:46:08.278Z,17.70
2023-02-11T16:51:09.758Z,17.27
2023-02-11T16:56:11.378Z,15.85
2023-02-11T17:01:14.124Z,14.18
2023-02-11T17:06:15.941Z,12.00
2023-02-11T17:11:17.582Z,13.55
2023-02-11T17:16:19.099Z,15.65
2023-02-11T17:21:20.611Z,16.40
2023-02-11T17:26:22.062Z,14.05
2023-02-11T17:31:23.628Z,17.10
2023-02-11T17:36:25.236Z,17.25
2023-02-11T17:41:26.700Z,15.20
2023-02-11T17:46:28.301Z,14.75
2023-02-11T17:51:29.980Z,14.93
2023-02-11T17:56:31.644Z,15.77
2023-02-11T18:01:33.442Z,12.40
2023-02-11T18:06:34.960Z,14.85
2023-02-11T18:11:36.391Z,16.63
2023-02-11T18:16:38.010Z,14.23
2023-02-11T18:21:39.739Z,16.02
2023-02-11T18:26:41.223Z,13.52
2023-02-11T18:31:42.773Z,14.25
2023-02-11T18:36:44.360Z,15.07
2023-02-11T18:41:45.817Z,16.05
2023-02-11T18:46:47.397Z,15.23
2023-02-11T18:51:48.892Z,15.95
2023-02-11T18:56:50.500Z,17.33
2023-02-11T19:01:52.145Z,16.27
2023-02-11T19:06:53.791Z,17.05
2023-02-11T19:11:55.453Z,16.73
2023-02-11T19:16:57.251Z,15.23
2023-02-11T19:21:58.821Z,15.93
2023-02-11T19:27:00.492Z,15.43
2023-02-11T19:32:02.188Z,16.73
2023-02-11T19:37:03.676Z,15.73
2023-02-11T19:42:05.299Z,15.77
2023-02-11T19:47:06.784Z,19.50
2023-02-11T19:52:08.415Z,16.30
2023-02-11T19:57:10.137Z,15.20
2023-02-11T20:02:11.672Z,13.13
2023-02-11T20:07:13.375Z,13.68
2023-02-11T20:12:15.057Z,14.80
2023-02-11T20:17:16.536Z,15.00
2023-02-11T20:22:18.174Z,13.52
2023-02-11T20:27:20.172Z,14.45
2023-02-11T20:32:21.811Z,15.63
2023-02-11T20:37:23.448Z,17.83
2023-02-11T20:42:25.045Z,18.17
2023-02-11T20:47:26.621Z,14.15
2023-02-11T20:52:28.313Z,17.33
2023-02-11T20:57:29.981Z,16.45
2023-02-11T21:02:31.581Z,18.15
2023-02-11T21:07:33.032Z,18.48
2023-02-11T21:12:34.520Z,18.23
2023-02-11T21:17:35.961Z,19.13
2023-02-11T21:22:37.398Z,19.08
2023-02-11T21:27:38.967Z,19.88
2023-02-11T21:32:40.459Z,18.70
2023-02-11T21:37:41.976Z,18.23
2023-02-11T21:42:43.416Z,18.50
2023-02-11T21:47:44.845Z,18.45
2023-02-11T21:52:46.318Z,18.65
2023-02-11T21:57:47.864Z,19.00
2023-02-11T22:02:49.922Z,18.20
2023-02-11T22:07:51.440Z,17.17
2023-02-11T22:12:52.919Z,17.52
2023-02-11T22:17:54.400Z,17.05
2023-02-11T22:22:55.884Z,18.88
2023-02-11T22:27:57.328Z,17.45
2023-02-11T22:32:58.793Z,18.83
2023-02-11T22:38:00.279Z,19.20
2023-02-11T22:43:01.755Z,18.30
2023-02-11T22:48:03.223Z,17.77
2023-02-11T22:53:04.759Z,18.90
2023-02-11T22:58:06.197Z,17.67
2023-02-11T23:03:07.613Z,17.98
2023-02-11T23:08:09.082Z,16.90
2023-02-11T23:13:10.570Z,16.55
2023-02-11T23:18:12.056Z,18.40
2023-02-11T23:23:13.487Z,17.13
2023-02-11T23:28:14.955Z,16.42
2023-02-11T23:33:16.436Z,17.88
2023-02-11T23:38:17.877Z,17.48
2023-02-11T23:43:19.343Z,19.05
2023-02-11T23:48:20.822Z,18.35
2023-02-11T23:53:22.248Z,16.38
2023-02-11T23:58:23.677Z,17.52
